createdAt,value
2023-03-19T00:00:09.521Z,95.8
2023-03-19T00:02:35.604Z,95.9
2023-03-19T00:05:01.705Z,95.7
2023-03-19T00:07:27.794Z,95.6
2023-03-19T00:09:52.977Z,95.8
2023-03-19T00:12:19.046Z,96.1
2023-03-19T00:14:45.112Z,95.8
2023-03-19T00:17:11.214Z,95.4
2023-03-19T00:19:37.324Z,95.2
2023-03-19T00:22:03.393Z,95.2
2023-03-19T00:24:29.490Z,95.2
2023-03-19T00:26:54.623Z,95.2
2023-03-19T00:29:19.734Z,95.4
2023-03-19T00:31:45.821Z,95.6
2023-03-19T00:34:11.943Z,95.8
2023-03-19T00:36:38.020Z,96
2023-03-19T00:39:04.117Z,96.1
2023-03-19T00:41:30.216Z,96.1
2023-03-19T00:43:56.312Z,95.9
2023-03-19T00:46:22.412Z,96.2
2023-03-19T00:48:48.560Z,96.4
2023-03-19T00:51:14.613Z,96.5
2023-03-19T00:53:40.693Z,96.6
2023-03-19T00:56:06.767Z,96.6
2023-03-19T00:58:32.871Z,96.8
2023-03-19T01:00:58.048Z,96.8
2023-03-19T01:03:24.078Z,96.8
2023-03-19T01:05:50.331Z,97
2023-03-19T01:08:16.278Z,96.9
2023-03-19T01:10:42.386Z,96.7
2023-03-19T01:13:08.463Z,96.7
2023-03-19T01:15:34.710Z,96.7
2023-03-19T01:18:00.657Z,96.5
2023-03-19T01:20:26.727Z,96.6
2023-03-19T01:22:53.006Z,96.5
2023-03-19T01:25:18.937Z,96.6
2023-03-19T01:27:45.051Z,96.8
2023-03-19T01:30:11.130Z,96.7
2023-03-19T01:32:36.257Z,96.6
2023-03-19T01:35:02.419Z,96.8
2023-03-19T01:37:28.448Z,96.8
2023-03-19T01:39:54.663Z,96.7
2023-03-19T01:42:20.631Z,96.6
2023-03-19T01:44:46.794Z,96.3
2023-03-19T01:47:12.819Z,96.3
2023-03-19T01:49:38.924Z,96.2
2023-03-19T01:52:05.003Z,95.9
2023-03-19T01:54:31.118Z,95.9
2023-03-19T01:56:57.237Z,95.9
2023-03-19T01:59:23.305Z,96.1
2023-03-19T02:01:49.509Z,96.3
2023-03-19T02:04:14.502Z,96.4
2023-03-19T02:09:06.735Z,96.6
2023-03-19T02:11:32.828Z,96.6
2023-03-19T02:13:59.111Z,96.4
2023-03-19T02:16:25.034Z,96.5
2023-03-19T02:18:51.111Z,96.8
2023-03-19T02:21:17.221Z,96.6
2023-03-19T02:23:43.318Z,96.6
2023-03-19T02:26:09.395Z,96.5
2023-03-19T02:28:35.493Z,96.8
2023-03-19T02:31:01.565Z,97
2023-03-19T02:33:27.694Z,96.7
2023-03-19T02:35:52.816Z,96.8
2023-03-19T02:38:18.952Z,96.7
2023-03-19T02:40:45.001Z,96.7
2023-03-19T02:43:11.053Z,96.7
2023-03-19T02:45:37.149Z,96.7
2023-03-19T02:48:03.269Z,96.8
2023-03-19T02:50:29.339Z,96.7
2023-03-19T02:52:55.443Z,96.5
2023-03-19T02:57:47.642Z,96.4
2023-03-19T03:00:13.772Z,96.4
2023-03-19T03:02:39.835Z,96.7
2023-03-19T03:05:05.917Z,96.9
2023-03-19T03:07:31.054Z,97.1
2023-03-19T03:09:57.167Z,97.1
2023-03-19T03:12:23.322Z,97.2
2023-03-19T03:14:49.348Z,97.4
2023-03-19T03:17:15.629Z,97.5
2023-03-19T03:19:41.523Z,97.6
2023-03-19T03:22:07.675Z,97.9
2023-03-19T03:24:33.714Z,97.7
2023-03-19T03:26:59.814Z,98.2
2023-03-19T03:29:25.932Z,98.3
2023-03-19T03:31:51.990Z,98.8
2023-03-19T03:34:18.088Z,98.8
2023-03-19T03:36:44.217Z,99
2023-03-19T03:39:09.319Z,99.2
2023-03-19T03:41:35.395Z,99.4
2023-03-19T03:44:01.512Z,100
2023-03-19T03:46:27.626Z,100
2023-03-19T03:48:53.732Z,100
2023-03-19T03:51:19.788Z,100
2023-03-19T03:53:45.905Z,100
2023-03-19T03:56:12.012Z,100
2023-03-19T03:58:38.120Z,100
2023-03-19T04:01:04.192Z,100
2023-03-19T04:03:30.311Z,100
2023-03-19T04:05:56.525Z,100
2023-03-19T04:08:22.451Z,100
2023-03-19T04:10:48.580Z,100
2023-03-19T04:13:14.666Z,100
2023-03-19T04:15:40.919Z,100
2023-03-19T04:18:05.924Z,100
2023-03-19T04:20:31.957Z,100
2023-03-19T04:22:58.049Z,100
2023-03-19T04:25:24.163Z,100
2023-03-19T04:27:50.362Z,100
2023-03-19T04:30:16.394Z,100
2023-03-19T04:32:42.432Z,100
2023-03-19T04:35:08.540Z,100
2023-03-19T04:37:34.841Z,100
2023-03-19T04:40:00.740Z,100
2023-03-19T04:42:26.840Z,100
2023-03-19T04:44:52.980Z,100
2023-03-19T04:47:19.027Z,100
2023-03-19T04:49:44.131Z,100
2023-03-19T04:52:10.223Z,100
2023-03-19T04:54:36.318Z,100
2023-03-19T04:57:02.404Z,100
2023-03-19T04:59:28.513Z,100
2023-03-19T05:01:54.629Z,100
2023-03-19T05:04:20.694Z,100
2023-03-19T05:06:46.900Z,100
2023-03-19T05:09:12.956Z,100
2023-03-19T05:11:39.000Z,100
2023-03-19T05:14:05.161Z,100
2023-03-19T05:16:31.195Z,100
2023-03-19T05:18:57.274Z,100
2023-03-19T05:21:22.382Z,100
2023-03-19T05:23:48.516Z,100
2023-03-19T05:26:14.655Z,100
2023-03-19T05:28:40.716Z,100
2023-03-19T05:31:06.767Z,100
2023-03-19T05:33:32.894Z,100
2023-03-19T05:35:58.986Z,100
2023-03-19T05:38:25.072Z,100
2023-03-19T05:40:51.178Z,100
2023-03-19T05:43:17.254Z,100
2023-03-19T05:45:43.355Z,100
2023-03-19T05:48:09.424Z,100
2023-03-19T05:50:35.538Z,100
2023-03-19T05:53:00.650Z,100
2023-03-19T05:55:26.743Z,100
2023-03-19T05:57:52.921Z,100
2023-03-19T06:00:18.934Z,100
2023-03-19T06:02:45.045Z,100
2023-03-19T06:05:11.125Z,100
2023-03-19T06:07:37.227Z,100
2023-03-19T06:10:03.310Z,100
2023-03-19T06:12:29.426Z,100
2023-03-19T06:14:55.536Z,100
2023-03-19T06:17:21.658Z,100
2023-03-19T06:19:47.699Z,100
2023-03-19T06:22:13.789Z,100
2023-03-19T06:24:38.903Z,100
2023-03-19T06:27:04.993Z,100
2023-03-19T06:29:31.093Z,100
2023-03-19T06:31:57.201Z,100
2023-03-19T06:34:23.303Z,100
2023-03-19T06:36:49.460Z,100
2023-03-19T06:39:15.528Z,100
2023-03-19T06:41:41.703Z,100
2023-03-19T06:44:07.675Z,100
2023-03-19T06:46:33.799Z,100
2023-03-19T06:48:59.859Z,100
2023-03-19T06:51:25.978Z,100
2023-03-19T06:53:52.089Z,100
2023-03-19T06:56:17.216Z,100
2023-03-19T06:58:43.417Z,100
2023-03-19T07:01:09.431Z,100
2023-03-19T07:03:35.489Z,100
2023-03-19T07:06:01.619Z,100
2023-03-19T07:08:27.656Z,100
2023-03-19T07:10:53.758Z,100
2023-03-19T07:13:19.972Z,100
2023-03-19T07:15:45.929Z,100
2023-03-19T07:18:12.032Z,100
2023-03-19T07:20:38.322Z,100
2023-03-19T07:23:04.240Z,100
2023-03-19T07:25:30.317Z,100
2023-03-19T07:27:55.439Z,100
2023-03-19T07:30:21.595Z,100
2023-03-19T07:32:47.640Z,100
2023-03-19T07:35:13.713Z,100
2023-03-19T07:37:39.831Z,100
2023-03-19T07:40:05.925Z,100
2023-03-19T07:42:32.019Z,100
2023-03-19T07:44:58.149Z,100
2023-03-19T07:47:24.206Z,100
2023-03-19T07:49:50.354Z,100
2023-03-19T07:52:16.419Z,100
2023-03-19T07:54:42.713Z,100
2023-03-19T07:57:08.757Z,100
2023-03-19T07:59:33.905Z,100
2023-03-19T08:01:59.790Z,100
2023-03-19T08:04:26.026Z,100
2023-03-19T08:06:52.018Z,100
2023-03-19T08:09:18.086Z,100
2023-03-19T08:11:44.251Z,100
2023-03-19T08:14:10.318Z,100
2023-03-19T08:16:36.381Z,99.7
2023-03-19T08:19:02.457Z,99.4
2023-03-19T08:21:28.605Z,99.1
2023-03-19T08:23:54.644Z,98.9
2023-03-19T08:26:20.743Z,98.3
2023-03-19T08:28:46.841Z,98.4
2023-03-19T08:31:12.121Z,98
2023-03-19T08:33:38.102Z,97.8
2023-03-19T08:36:04.185Z,97.8
2023-03-19T08:38:30.254Z,97.4
2023-03-19T08:40:56.501Z,97
2023-03-19T08:43:22.568Z,96.4
2023-03-19T08:45:48.598Z,96.2
2023-03-19T08:48:14.628Z,96
2023-03-19T08:50:40.760Z,95.2
2023-03-19T08:53:06.822Z,94.8
2023-03-19T08:55:32.903Z,94.7
2023-03-19T08:57:59.104Z,94
2023-03-19T09:00:25.082Z,93.4
2023-03-19T09:02:50.245Z,92.9
2023-03-19T09:05:16.365Z,92.7
2023-03-19T09:07:42.415Z,93
2023-03-19T09:10:08.529Z,92.3
2023-03-19T09:12:34.594Z,92.3
2023-03-19T09:17:26.804Z,91.5
2023-03-19T09:22:19.078Z,89.6
2023-03-19T09:24:45.183Z,90.3
2023-03-19T09:27:11.157Z,89
2023-03-19T09:29:37.381Z,89.3
2023-03-19T09:32:03.378Z,89.3
2023-03-19T09:34:28.463Z,88
2023-03-19T09:36:54.563Z,88
2023-03-19T09:39:20.733Z,87.7
2023-03-19T09:41:45.821Z,86.7
2023-03-19T09:44:11.919Z,86
2023-03-19T09:46:38.141Z,85.5
2023-03-19T09:49:04.052Z,86
2023-03-19T09:51:30.161Z,85.2
2023-03-19T09:53:56.305Z,84.9
2023-03-19T09:56:22.368Z,81.8
2023-03-19T09:58:48.501Z,82.2
2023-03-19T10:01:14.691Z,81.1
2023-03-19T10:03:40.618Z,81
2023-03-19T10:06:06.737Z,79.9
2023-03-19T10:08:32.830Z,79.6
2023-03-19T10:10:58.924Z,78.3
2023-03-19T10:13:24.059Z,78.6
2023-03-19T10:15:50.127Z,75.9
2023-03-19T10:18:16.229Z,73.9
2023-03-19T10:20:42.431Z,74.2
2023-03-19T10:23:08.488Z,75.3
2023-03-19T10:25:34.503Z,72
2023-03-19T10:28:00.739Z,67.4
2023-03-19T10:30:26.728Z,63.6
2023-03-19T10:32:52.842Z,64.4
2023-03-19T10:35:19.149Z,65
2023-03-19T10:37:45.025Z,63.7
2023-03-19T10:40:11.146Z,63.9
2023-03-19T10:42:37.223Z,63.2
2023-03-19T10:45:02.318Z,62.6
2023-03-19T10:47:28.407Z,61.3
2023-03-19T10:49:54.506Z,60.8
2023-03-19T10:52:20.636Z,61.8
2023-03-19T10:54:46.695Z,59.6
2023-03-19T10:57:12.796Z,61
2023-03-19T10:59:38.869Z,61.6
2023-03-19T11:02:05.034Z,61.9
2023-03-19T11:04:31.231Z,59.8
2023-03-19T11:06:57.306Z,59.1
2023-03-19T11:09:23.344Z,59.5
2023-03-19T11:11:49.390Z,60.9
2023-03-19T11:14:15.523Z,60.7
2023-03-19T11:16:40.587Z,62.8
2023-03-19T11:19:06.756Z,61.4
2023-03-19T11:21:32.823Z,62
2023-03-19T11:23:58.840Z,59.8
2023-03-19T11:26:25.013Z,60.3
2023-03-19T11:28:51.068Z,60.2
2023-03-19T11:31:17.131Z,60.2
2023-03-19T11:33:43.235Z,60.1
2023-03-19T11:36:09.330Z,58.9
2023-03-19T11:38:35.463Z,59
2023-03-19T11:41:01.524Z,59.7
2023-03-19T11:43:27.648Z,60
2023-03-19T11:45:53.708Z,59.2
2023-03-19T11:48:18.827Z,59.6
2023-03-19T11:50:44.944Z,59.1
2023-03-19T11:53:11.001Z,58.4
2023-03-19T11:55:37.263Z,57.1
2023-03-19T11:58:03.184Z,57.8
2023-03-19T12:00:29.339Z,56.9
2023-03-19T12:02:55.381Z,55.6
2023-03-19T12:05:21.517Z,56.7
2023-03-19T12:07:47.592Z,56
2023-03-19T12:10:13.669Z,55.5
2023-03-19T12:12:39.785Z,55.5
2023-03-19T12:15:05.874Z,56.3
2023-03-19T12:17:31.969Z,56
2023-03-19T12:19:57.080Z,56.5
2023-03-19T12:22:23.301Z,55.3
2023-03-19T12:24:49.310Z,56.4
2023-03-19T12:27:15.357Z,55.9
2023-03-19T12:29:41.438Z,54
2023-03-19T12:32:07.549Z,53.9
2023-03-19T12:34:33.692Z,54.5
2023-03-19T12:36:59.789Z,55.6
2023-03-19T12:39:25.901Z,55.3
2023-03-19T12:41:51.981Z,55.4
2023-03-19T12:44:18.071Z,55.5
2023-03-19T12:46:44.134Z,54.3
2023-03-19T12:49:10.305Z,53.5
2023-03-19T12:51:35.385Z,54.6
2023-03-19T12:54:01.393Z,54.4
2023-03-19T12:56:27.501Z,55
2023-03-19T12:58:53.573Z,53.7
2023-03-19T13:01:19.693Z,54.5
2023-03-19T13:03:45.794Z,53.2
2023-03-19T13:06:11.900Z,52.5
2023-03-19T13:08:37.965Z,53.5
2023-03-19T13:11:04.046Z,52.7
2023-03-19T13:13:30.145Z,51.1
2023-03-19T13:15:56.254Z,52
2023-03-19T13:18:22.341Z,49.8
2023-03-19T13:20:48.529Z,51.7
2023-03-19T13:23:13.564Z,52.1
2023-03-19T13:25:39.668Z,51.6
2023-03-19T13:28:05.747Z,52.7
2023-03-19T13:30:31.842Z,53
2023-03-19T13:32:57.949Z,53.3
2023-03-19T13:35:24.045Z,53.5
2023-03-19T13:37:50.180Z,53.6
2023-03-19T13:40:16.230Z,53
2023-03-19T13:42:42.312Z,53.6
2023-03-19T13:45:08.407Z,55.4
2023-03-19T13:47:34.495Z,58.3
2023-03-19T13:50:00.610Z,60.3
2023-03-19T13:52:26.706Z,62.5
2023-03-19T13:54:52.908Z,64.2
2023-03-19T13:57:19.084Z,66.2
2023-03-19T13:59:45.224Z,67.5
2023-03-19T14:02:11.184Z,69.2
2023-03-19T14:04:37.317Z,70
2023-03-19T14:07:03.392Z,70.2
2023-03-19T14:09:29.482Z,71
2023-03-19T14:11:55.568Z,70.4
2023-03-19T14:14:21.678Z,70.6
2023-03-19T14:16:47.761Z,69.6
2023-03-19T14:19:13.857Z,68.7
2023-03-19T14:21:39.981Z,68.4
2023-03-19T14:24:06.053Z,67.8
2023-03-19T14:26:31.159Z,67.5
2023-03-19T14:28:57.370Z,66.3
2023-03-19T14:31:23.379Z,65.8
2023-03-19T14:33:49.442Z,65.5
2023-03-19T14:36:15.553Z,65.6
2023-03-19T14:38:41.649Z,66
2023-03-19T14:41:07.820Z,64.4
2023-03-19T14:43:33.838Z,62
2023-03-19T14:45:59.951Z,61.6
2023-03-19T14:48:26.029Z,62.4
2023-03-19T14:50:52.129Z,62.7
2023-03-19T14:53:18.240Z,62.5
2023-03-19T14:55:44.304Z,63.3
2023-03-19T14:58:10.525Z,63.8
2023-03-19T15:00:36.635Z,64.9
2023-03-19T15:03:02.719Z,65.2
2023-03-19T15:05:28.816Z,65.3
2023-03-19T15:07:54.921Z,65.7
2023-03-19T15:10:21.009Z,65
2023-03-19T15:12:47.106Z,65.9
2023-03-19T15:15:13.194Z,65.3
2023-03-19T15:17:39.280Z,64.5
2023-03-19T15:20:05.604Z,64.6
2023-03-19T15:22:31.502Z,63.2
2023-03-19T15:24:57.581Z,63
2023-03-19T15:27:23.702Z,64.1
2023-03-19T15:29:48.795Z,65
2023-03-19T15:32:14.940Z,65.7
2023-03-19T15:34:41.010Z,66.8
2023-03-19T15:37:07.096Z,67.3
2023-03-19T15:39:33.218Z,68.8
2023-03-19T15:41:59.262Z,68.8
2023-03-19T15:44:25.357Z,69.4
2023-03-19T15:46:51.466Z,70
2023-03-19T15:49:17.575Z,70.5
2023-03-19T15:51:43.635Z,70.8
2023-03-19T15:54:09.741Z,71.4
2023-03-19T15:56:35.847Z,71.8
2023-03-19T15:59:01.933Z,71.6
2023-03-19T16:01:28.147Z,72.2
2023-03-19T16:03:54.255Z,72.8
2023-03-19T16:06:20.339Z,73.2
2023-03-19T16:08:46.448Z,74.1
2023-03-19T16:11:12.514Z,74.3
2023-03-19T16:13:38.620Z,74.8
2023-03-19T16:16:04.804Z,74.8
2023-03-19T16:18:30.818Z,74.5
2023-03-19T16:20:56.901Z,74.3
2023-03-19T16:23:22.997Z,75.1
2023-03-19T16:25:49.091Z,75.2
2023-03-19T16:28:15.185Z,75.3
2023-03-19T16:30:41.310Z,75.1
2023-03-19T16:33:06.419Z,75.6
2023-03-19T16:35:32.485Z,75.8
2023-03-19T16:37:58.573Z,75.8
2023-03-19T16:40:24.678Z,76.3
2023-03-19T16:42:50.796Z,76.1
2023-03-19T16:45:16.881Z,76.6
2023-03-19T16:47:42.964Z,76.1
2023-03-19T16:50:09.049Z,76.7
2023-03-19T16:52:35.156Z,78
2023-03-19T16:55:01.266Z,78.9
2023-03-19T16:57:27.342Z,80
2023-03-19T16:59:53.433Z,82
2023-03-19T17:02:19.598Z,83.3
2023-03-19T17:04:45.746Z,84.7
2023-03-19T17:07:11.842Z,84.8
2023-03-19T17:09:37.967Z,84.1
2023-03-19T17:12:04.058Z,84.7
2023-03-19T17:14:30.134Z,84.8
2023-03-19T17:16:56.233Z,85.1
2023-03-19T17:19:22.347Z,86.4
2023-03-19T17:21:48.411Z,87.8
2023-03-19T17:24:14.516Z,88.8
2023-03-19T17:26:40.618Z,89.7
2023-03-19T17:29:06.792Z,90.4
2023-03-19T17:31:32.814Z,90.4
2023-03-19T17:33:58.909Z,91
2023-03-19T17:36:24.025Z,91.8
2023-03-19T17:38:50.122Z,92.5
2023-03-19T17:41:16.195Z,93.5
2023-03-19T17:43:42.299Z,93.9
2023-03-19T17:46:08.455Z,94.6
2023-03-19T17:48:34.509Z,95.2
2023-03-19T17:50:59.646Z,95.5
2023-03-19T17:53:25.698Z,95.8
2023-03-19T17:55:51.787Z,96.2
2023-03-19T17:58:17.902Z,96.7
2023-03-19T18:00:44.006Z,97.1
2023-03-19T18:03:10.089Z,97.5
2023-03-19T18:05:36.184Z,97.6
2023-03-19T18:08:02.282Z,97.6
2023-03-19T18:10:28.375Z,97.4
2023-03-19T18:12:54.466Z,97.1
2023-03-19T18:15:20.563Z,96.9
2023-03-19T18:17:46.654Z,96.9
2023-03-19T18:20:12.763Z,97.1
2023-03-19T18:22:37.892Z,97.4
2023-03-19T18:25:03.964Z,97.8
2023-03-19T18:27:30.047Z,98
2023-03-19T18:29:56.153Z,97.3
2023-03-19T18:32:22.251Z,97.4
2023-03-19T18:34:48.357Z,97.6
2023-03-19T18:39:40.538Z,98.5
2023-03-19T18:42:06.634Z,98.5
2023-03-19T18:44:32.738Z,98.5
2023-03-19T18:46:58.821Z,98
2023-03-19T18:49:24.924Z,98.2
2023-03-19T18:51:51.109Z,98.2
2023-03-19T18:54:16.125Z,98.3
2023-03-19T18:56:42.221Z,99
2023-03-19T18:59:08.309Z,98.9
2023-03-19T19:01:34.413Z,99.1
2023-03-19T19:04:00.505Z,99.2
2023-03-19T19:06:26.612Z,99.3
2023-03-19T19:08:52.705Z,99.6
2023-03-19T19:11:18.796Z,99.7
2023-03-19T19:13:44.887Z,99.8
2023-03-19T19:16:10.966Z,100
2023-03-19T19:18:37.079Z,100
2023-03-19T19:21:03.161Z,100
2023-03-19T19:23:29.263Z,100
2023-03-19T19:25:54.380Z,100
2023-03-19T19:28:20.472Z,100
2023-03-19T19:30:46.562Z,100
2023-03-19T19:33:12.657Z,100
2023-03-19T19:35:38.753Z,100
2023-03-19T19:38:04.857Z,100
2023-03-19T19:40:30.954Z,100
2023-03-19T19:42:57.087Z,100
2023-03-19T19:45:23.145Z,100
2023-03-19T19:47:49.271Z,100
2023-03-19T19:50:15.337Z,100
2023-03-19T19:52:41.439Z,99.9
2023-03-19T19:55:07.530Z,99.7
2023-03-19T19:57:32.637Z,99.7
2023-03-19T19:59:58.725Z,99.4
2023-03-19T20:02:24.835Z,99
2023-03-19T20:04:50.944Z,99
2023-03-19T20:07:17.019Z,98.9
2023-03-19T20:09:43.104Z,99.1
2023-03-19T20:12:09.214Z,98.9
2023-03-19T20:14:35.315Z,99.1
2023-03-19T20:17:01.434Z,98.9
2023-03-19T20:19:27.495Z,98.8
2023-03-19T20:21:53.608Z,98.8
2023-03-19T20:24:19.695Z,99.1
2023-03-19T20:26:45.783Z,99.4
2023-03-19T20:29:10.885Z,99.6
2023-03-19T20:31:37.008Z,99.8
2023-03-19T20:34:03.109Z,100
2023-03-19T20:36:29.173Z,100
2023-03-19T20:38:55.288Z,100
2023-03-19T20:41:21.385Z,100
2023-03-19T20:43:47.457Z,100
2023-03-19T20:46:13.557Z,100
2023-03-19T20:48:39.650Z,100
2023-03-19T20:51:05.747Z,100
2023-03-19T20:53:31.870Z,100
2023-03-19T20:55:57.936Z,100
2023-03-19T20:58:24.027Z,100
2023-03-19T21:00:49.147Z,100
2023-03-19T21:03:15.271Z,100
2023-03-19T21:05:41.338Z,100
2023-03-19T21:08:07.431Z,100
2023-03-19T21:10:33.542Z,100
2023-03-19T21:12:59.610Z,100
2023-03-19T21:15:25.705Z,100
2023-03-19T21:17:51.925Z,100
2023-03-19T21:20:17.975Z,100
2023-03-19T21:22:44.078Z,100
2023-03-19T21:25:10.104Z,100
2023-03-19T21:27:36.199Z,100
2023-03-19T21:30:02.288Z,100
2023-03-19T21:32:27.409Z,100
2023-03-19T21:34:53.503Z,100
2023-03-19T21:37:19.590Z,100
2023-03-19T21:39:45.730Z,100
2023-03-19T21:42:11.820Z,100
2023-03-19T21:44:37.876Z,100
2023-03-19T21:47:04.080Z,100
2023-03-19T21:49:30.143Z,100
2023-03-19T21:51:56.200Z,100
2023-03-19T21:54:22.320Z,100
2023-03-19T21:56:48.355Z,100
2023-03-19T21:59:14.446Z,100
2023-03-19T22:01:40.557Z,100
2023-03-19T22:04:05.691Z,100
2023-03-19T22:06:31.815Z,100
2023-03-19T22:08:57.902Z,100
2023-03-19T22:11:23.937Z,100
2023-03-19T22:13:50.048Z,100
2023-03-19T22:16:16.125Z,100
2023-03-19T22:18:42.253Z,100
2023-03-19T22:21:08.339Z,100
2023-03-19T22:23:34.420Z,100
2023-03-19T22:26:00.513Z,100
2023-03-19T22:28:26.614Z,100
2023-03-19T22:30:52.730Z,100
2023-03-19T22:33:18.811Z,100
2023-03-19T22:35:43.917Z,100
2023-03-19T22:38:10.053Z,100
2023-03-19T22:40:36.104Z,100
2023-03-19T22:43:02.297Z,100
2023-03-19T22:45:28.292Z,100
2023-03-19T22:47:54.425Z,100
2023-03-19T22:50:20.487Z,100
2023-03-19T22:52:46.602Z,100
2023-03-19T22:55:12.667Z,100
2023-03-19T22:57:38.777Z,100
2023-03-19T23:00:04.878Z,100
2023-03-19T23:02:31.008Z,100
2023-03-19T23:04:57.070Z,100
2023-03-19T23:07:22.188Z,100
2023-03-19T23:09:48.271Z,100
2023-03-19T23:12:14.359Z,100
2023-03-19T23:14:40.464Z,100
2023-03-19T23:17:06.604Z,100
2023-03-19T23:19:32.711Z,100
2023-03-19T23:21:58.760Z,100
2023-03-19T23:24:24.846Z,100
2023-03-19T23:26:51.017Z,100
2023-03-19T23:29:17.085Z,100
2023-03-19T23:31:43.138Z,100
2023-03-19T23:34:09.262Z,100
2023-03-19T23:36:35.338Z,100
2023-03-19T23:39:00.432Z,100
2023-03-19T23:41:26.547Z,100
2023-03-19T23:43:52.646Z,100
2023-03-19T23:46:18.728Z,100
2023-03-19T23:48:44.821Z,100
2023-03-19T23:51:10.915Z,100
2023-03-19T23:53:37.000Z,100
2023-03-19T23:56:03.166Z,100
2023-03-19T23:58:29.231Z,100
